Time;durP1;ratioP1;P1;durP2;ratioP2;P2;SDS_P1;SDS_P2;PMS_P1;PMS_P2;Temp;Humidity;BMP_temperature;BMP_pressure;BME280_temperature;BME280_humidity;BME280_pressure;Samples;Min_cycle;Max_cycle;Signal;HPM_P1;HPM_P2
2024/02/27 00:02:21;;;;;;;1.05;0.73;;;;;;;;;;5043896;28;20056;-74
2024/02/27 00:04:51;;;;;;;4.40;0.82;;;;;;;;;;5044146;28;20427;-74
2024/02/27 00:07:25;;;;;;;1.92;0.90;;;;;;;;;;5043915;28;20045;-74
2024/02/27 00:09:58;;;;;;;1.58;0.85;;;;;;;;;;5043527;28;20057;-75
2024/02/27 00:12:29;;;;;;;0.70;0.65;;;;;;;;;;5042414;28;20045;-75
2024/02/27 00:15:00;;;;;;;2.88;0.85;;;;;;;;;;5043444;28;20059;-73
2024/02/27 00:17:31;;;;;;;1.23;0.88;;;;;;;;;;5044241;28;20049;-72
2024/02/27 00:20:03;;;;;;;2.38;1.00;;;;;;;;;;5043061;28;20049;-74
2024/02/27 00:22:34;;;;;;;2.92;0.95;;;;;;;;;;5043526;28;20514;-73
2024/02/27 00:25:05;;;;;;;2.47;0.90;;;;;;;;;;5043507;28;20040;-74
2024/02/27 00:27:36;;;;;;;4.05;0.90;;;;;;;;;;5043316;28;20041;-74
2024/02/27 00:30:07;;;;;;;1.85;1.00;;;;;;;;;;5043119;28;20412;-74
2024/02/27 00:32:37;;;;;;;1.63;1.10;;;;;;;;;;5043204;28;20052;-74
2024/02/27 00:35:09;;;;;;;3.70;1.30;;;;;;;;;;5041810;28;20061;-73
2024/02/27 00:37:39;;;;;;;4.15;1.25;;;;;;;;;;5042101;28;20060;-77
2024/02/27 00:40:12;;;;;;;3.13;1.20;;;;;;;;;;5043293;28;20044;-74
2024/02/27 00:42:42;;;;;;;1.00;0.90;;;;;;;;;;5043573;28;20060;-74
2024/02/27 00:45:12;;;;;;;2.22;1.00;;;;;;;;;;5043733;28;20045;-75
2024/02/27 00:47:44;;;;;;;5.22;1.20;;;;;;;;;;5042499;28;20056;-74
2024/02/27 00:50:14;;;;;;;1.30;1.00;;;;;;;;;;5042864;28;20056;-75
2024/02/27 00:52:44;;;;;;;7.07;1.38;;;;;;;;;;5042695;28;20052;-75
2024/02/27 00:55:16;;;;;;;1.60;1.10;;;;;;;;;;5041279;28;20610;-74
2024/02/27 00:57:47;;;;;;;1.55;1.45;;;;;;;;;;5042306;28;20059;-74
2024/02/27 01:00:19;;;;;;;4.70;1.30;;;;;;;;;;5041653;28;20048;-75
2024/02/27 01:02:49;;;;;;;1.73;1.15;;;;;;;;;;5039801;28;20532;-75
2024/02/27 01:05:21;;;;;;;1.52;1.20;;;;;;;;;;5041240;28;20504;-74
2024/02/27 01:07:52;;;;;;;3.05;1.33;;;;;;;;;;5042459;28;20417;-74
2024/02/27 01:10:23;;;;;;;3.65;1.65;;;;;;;;;;5043686;28;20471;-75
2024/02/27 01:12:54;;;;;;;3.90;1.60;;;;;;;;;;5042604;28;20048;-74
2024/02/27 01:15:23;;;;;;;6.38;1.73;;;;;;;;;;5042513;28;20037;-74
2024/02/27 01:17:55;;;;;;;8.02;2.10;;;;;;;;;;5042932;28;20041;-75
2024/02/27 01:20:25;;;;;;;3.92;1.85;;;;;;;;;;5040898;28;20867;-75
2024/02/27 01:22:56;;;;;;;2.58;1.90;;;;;;;;;;5042764;28;20064;-74
2024/02/27 01:25:26;;;;;;;2.13;1.70;;;;;;;;;;5042088;28;20049;-75
2024/02/27 01:27:56;;;;;;;6.65;1.63;;;;;;;;;;5042536;28;20048;-75
2024/02/27 01:30:28;;;;;;;2.55;1.85;;;;;;;;;;5042976;28;20586;-76
2024/02/27 01:32:59;;;;;;;3.42;1.70;;;;;;;;;;5042759;28;20545;-78
2024/02/27 01:35:30;;;;;;;6.13;1.83;;;;;;;;;;5043092;28;20055;-75
2024/02/27 01:38:01;;;;;;;4.13;2.20;;;;;;;;;;5042199;28;20055;-74
2024/02/27 01:40:31;;;;;;;6.47;1.77;;;;;;;;;;5040727;28;20397;-76
2024/02/27 01:43:03;;;;;;;6.47;2.00;;;;;;;;;;5041192;28;20041;-74
2024/02/27 01:45:33;;;;;;;5.40;2.20;;;;;;;;;;5041005;28;20048;-74
2024/02/27 01:48:03;;;;;;;2.30;1.77;;;;;;;;;;5040841;28;20057;-75
2024/02/27 01:50:34;;;;;;;3.33;2.00;;;;;;;;;;5042127;28;20404;-76
2024/02/27 01:53:05;;;;;;;3.92;1.77;;;;;;;;;;5042315;28;20060;-75
2024/02/27 01:55:36;;;;;;;5.47;2.00;;;;;;;;;;5040478;28;20048;-75
2024/02/27 01:58:07;;;;;;;4.13;1.90;;;;;;;;;;5041775;28;20419;-75
2024/02/27 02:00:37;;;;;;;2.70;1.85;;;;;;;;;;5041917;28;20500;-75
2024/02/27 02:03:08;;;;;;;3.30;1.88;;;;;;;;;;5041663;28;20053;-73
2024/02/27 02:05:39;;;;;;;3.80;2.10;;;;;;;;;;5042225;28;20407;-75
2024/02/27 02:08:09;;;;;;;2.55;1.80;;;;;;;;;;5040569;28;20049;-75
2024/02/27 02:10:39;;;;;;;6.18;1.90;;;;;;;;;;5041696;28;20401;-76
2024/02/27 02:13:10;;;;;;;5.78;2.45;;;;;;;;;;5041970;28;20049;-74
2024/02/27 02:15:42;;;;;;;3.92;2.20;;;;;;;;;;5042758;28;20503;-75
2024/02/27 02:18:13;;;;;;;3.15;2.10;;;;;;;;;;5041901;28;20104;-74
2024/02/27 02:20:45;;;;;;;3.00;1.95;;;;;;;;;;5042387;28;20554;-75
2024/02/27 02:23:16;;;;;;;2.92;2.08;;;;;;;;;;5040752;28;20073;-76
2024/02/27 02:25:49;;;;;;;2.40;2.00;;;;;;;;;;5041707;28;20056;-74
2024/02/27 02:28:20;;;;;;;3.88;2.00;;;;;;;;;;5042256;28;20056;-75
2024/02/27 02:30:51;;;;;;;7.90;2.03;;;;;;;;;;5042340;28;20060;-75
2024/02/27 02:33:21;;;;;;;7.00;2.00;;;;;;;;;;5041461;28;20049;-74
2024/02/27 02:35:52;;;;;;;4.53;1.95;;;;;;;;;;5041427;28;20049;-75
2024/02/27 02:38:23;;;;;;;6.38;2.08;;;;;;;;;;5042012;28;20512;-75
2024/02/27 02:40:53;;;;;;;5.95;2.00;;;;;;;;;;5042366;28;20056;-74
2024/02/27 02:43:23;;;;;;;1.75;1.63;;;;;;;;;;5041318;28;20528;-74
2024/02/27 02:45:55;;;;;;;3.92;1.90;;;;;;;;;;5041508;28;20507;-74
2024/02/27 02:48:26;;;;;;;4.40;2.10;;;;;;;;;;5041800;28;20053;-74
2024/02/27 02:50:56;;;;;;;6.50;2.10;;;;;;;;;;5041400;28;20531;-75
2024/02/27 02:53:27;;;;;;;4.28;1.88;;;;;;;;;;5042678;28;20415;-74
2024/02/27 02:55:57;;;;;;;3.40;2.08;;;;;;;;;;5044671;28;20060;-74
2024/02/27 02:58:28;;;;;;;6.43;2.25;;;;;;;;;;5046492;28;20382;-76
2024/02/27 03:00:59;;;;;;;4.03;2.30;;;;;;;;;;5045568;28;20044;-74
2024/02/27 03:03:29;;;;;;;7.45;2.17;;;;;;;;;;5044316;28;20039;-74
2024/02/27 03:05:59;;;;;;;6.70;2.17;;;;;;;;;;5045427;28;20682;-76
2024/02/27 03:08:30;;;;;;;4.03;2.17;;;;;;;;;;5044597;28;20052;-74
2024/02/27 03:11:01;;;;;;;5.72;2.65;;;;;;;;;;5045048;28;20415;-74
2024/02/27 03:13:32;;;;;;;3.67;2.03;;;;;;;;;;5043706;28;20541;-74
2024/02/27 03:16:02;;;;;;;4.22;2.28;;;;;;;;;;5045276;28;20393;-78
2024/02/27 03:18:34;;;;;;;4.47;2.22;;;;;;;;;;5044981;28;20052;-76
2024/02/27 03:21:06;;;;;;;4.80;2.42;;;;;;;;;;5044764;28;20057;-74
2024/02/27 03:23:36;;;;;;;3.40;2.03;;;;;;;;;;5044287;28;20053;-75
2024/02/27 03:26:07;;;;;;;5.13;2.03;;;;;;;;;;5044913;28;20045;-75
2024/02/27 03:28:37;;;;;;;5.35;2.30;;;;;;;;;;5044604;28;20048;-74
2024/02/27 03:31:08;;;;;;;5.75;2.10;;;;;;;;;;5044639;28;20048;-75
2024/02/27 03:33:39;;;;;;;3.90;2.33;;;;;;;;;;5044618;28;20053;-74
2024/02/27 03:36:10;;;;;;;5.05;2.35;;;;;;;;;;5043797;28;20409;-74
2024/02/27 03:38:40;;;;;;;4.68;2.00;;;;;;;;;;5042840;28;20052;-75
2024/02/27 03:41:15;;;;;;;6.45;1.85;;;;;;;;;;5045002;28;20519;-74
2024/02/27 03:43:47;;;;;;;6.22;2.13;;;;;;;;;;5044247;28;20053;-76
2024/02/27 03:46:17;;;;;;;5.50;2.20;;;;;;;;;;5044482;28;20060;-74
2024/02/27 03:48:47;;;;;;;2.95;1.90;;;;;;;;;;5044676;28;20052;-75
2024/02/27 03:51:18;;;;;;;8.63;2.58;;;;;;;;;;5043795;28;20487;-75
2024/02/27 03:53:50;;;;;;;4.97;2.03;;;;;;;;;;5044536;28;20041;-74
2024/02/27 03:56:22;;;;;;;8.50;2.40;;;;;;;;;;5044009;28;20435;-75
2024/02/27 03:58:52;;;;;;;4.57;2.17;;;;;;;;;;5043933;28;20045;-74
2024/02/27 04:01:23;;;;;;;2.80;1.67;;;;;;;;;;5044173;28;20048;-74
2024/02/27 04:03:54;;;;;;;3.85;2.03;;;;;;;;;;5043745;28;20060;-75
2024/02/27 04:06:24;;;;;;;2.25;1.63;;;;;;;;;;5043241;28;20052;-74
2024/02/27 04:08:56;;;;;;;2.60;1.70;;;;;;;;;;5043885;28;20056;-75
2024/02/27 04:11:26;;;;;;;2.40;1.88;;;;;;;;;;5043842;28;20049;-74
2024/02/27 04:13:57;;;;;;;1.88;1.60;;;;;;;;;;5043285;28;20045;-75
2024/02/27 04:16:29;;;;;;;4.15;1.30;;;;;;;;;;5043453;28;21140;-76
2024/02/27 04:19:00;;;;;;;4.78;1.80;;;;;;;;;;5044033;28;20068;-77
2024/02/27 04:21:30;;;;;;;4.13;1.60;;;;;;;;;;5044082;28;20052;-75
2024/02/27 04:24:00;;;;;;;2.60;1.65;;;;;;;;;;5043805;28;20043;-76
2024/02/27 04:26:32;;;;;;;1.55;1.40;;;;;;;;;;5043679;28;20045;-75
2024/02/27 04:29:03;;;;;;;6.15;1.95;;;;;;;;;;5044145;28;20055;-75
2024/02/27 04:31:33;;;;;;;4.57;1.60;;;;;;;;;;5043588;28;20041;-75
2024/02/27 04:34:03;;;;;;;2.13;1.50;;;;;;;;;;5041783;28;20045;-76
2024/02/27 04:36:33;;;;;;;2.95;1.88;;;;;;;;;;5043766;28;20513;-75
2024/02/27 04:39:04;;;;;;;2.05;1.60;;;;;;;;;;5043379;28;20059;-74
2024/02/27 04:41:35;;;;;;;6.13;1.67;;;;;;;;;;5042246;28;20539;-75
2024/02/27 04:44:05;;;;;;;4.00;1.60;;;;;;;;;;5043434;28;20048;-75
2024/02/27 04:46:36;;;;;;;3.67;1.70;;;;;;;;;;5043433;28;20619;-75
2024/02/27 04:49:06;;;;;;;6.10;1.80;;;;;;;;;;5041173;28;20056;-74
2024/02/27 04:51:37;;;;;;;5.93;1.70;;;;;;;;;;5043223;28;20499;-75
2024/02/27 04:54:08;;;;;;;2.92;1.40;;;;;;;;;;5043614;28;20052;-75
2024/02/27 04:56:42;;;;;;;5.70;1.52;;;;;;;;;;5043173;28;20087;-75
2024/02/27 04:59:13;;;;;;;2.00;1.40;;;;;;;;;;5042807;28;20033;-74
2024/02/27 05:01:49;;;;;;;2.72;1.60;;;;;;;;;;5042663;28;20061;-74
2024/02/27 05:04:22;;;;;;;4.45;1.50;;;;;;;;;;5042463;28;20053;-75
2024/02/27 05:06:52;;;;;;;7.60;2.20;;;;;;;;;;5042961;28;20045;-74
2024/02/27 05:09:24;;;;;;;2.78;1.80;;;;;;;;;;5042282;28;20512;-75
2024/02/27 05:11:55;;;;;;;4.28;1.60;;;;;;;;;;5042549;28;20053;-75
2024/02/27 05:14:28;;;;;;;1.52;1.20;;;;;;;;;;5042747;28;20385;-75
2024/02/27 05:16:59;;;;;;;4.53;1.42;;;;;;;;;;5042009;28;20041;-75
2024/02/27 05:19:29;;;;;;;2.92;1.52;;;;;;;;;;5042721;28;20060;-76
2024/02/27 05:22:00;;;;;;;3.13;1.42;;;;;;;;;;5042079;28;20053;-75
2024/02/27 05:24:31;;;;;;;3.08;1.85;;;;;;;;;;5042556;28;20515;-75
2024/02/27 05:27:01;;;;;;;3.85;1.52;;;;;;;;;;5042316;28;20060;-75
2024/02/27 05:29:32;;;;;;;8.20;1.55;;;;;;;;;;5042748;28;20064;-75
2024/02/27 05:32:03;;;;;;;1.42;1.30;;;;;;;;;;5042468;28;20056;-75
2024/02/27 05:34:34;;;;;;;1.92;1.48;;;;;;;;;;5041278;28;20606;-74
2024/02/27 05:37:04;;;;;;;4.68;1.48;;;;;;;;;;5042493;28;20053;-76
2024/02/27 05:39:34;;;;;;;3.13;1.40;;;;;;;;;;5042172;28;20056;-76
2024/02/27 05:42:05;;;;;;;2.97;1.90;;;;;;;;;;5040904;28;20049;-74
2024/02/27 05:44:36;;;;;;;5.55;1.50;;;;;;;;;;5041550;28;20049;-75
2024/02/27 05:47:06;;;;;;;4.60;1.50;;;;;;;;;;5041795;28;20427;-75
2024/02/27 05:49:36;;;;;;;4.10;1.38;;;;;;;;;;5042073;28;20060;-75
2024/02/27 05:52:07;;;;;;;2.88;1.40;;;;;;;;;;5042339;28;20056;-74
2024/02/27 05:54:38;;;;;;;1.95;1.08;;;;;;;;;;5042295;28;20044;-75
2024/02/27 05:57:12;;;;;;;6.25;1.33;;;;;;;;;;5041080;28;20048;-75
2024/02/27 05:59:42;;;;;;;1.75;1.30;;;;;;;;;;5042750;28;20052;-75
2024/02/27 06:02:14;;;;;;;3.60;1.35;;;;;;;;;;5042162;28;20049;-74
2024/02/27 06:04:46;;;;;;;2.75;1.30;;;;;;;;;;5042143;28;20389;-74
2024/02/27 06:07:17;;;;;;;2.80;1.50;;;;;;;;;;5042248;28;20056;-75
2024/02/27 06:09:49;;;;;;;4.28;1.60;;;;;;;;;;5041881;28;20726;-75
2024/02/27 06:12:19;;;;;;;4.00;1.67;;;;;;;;;;5041489;28;20423;-73
2024/02/27 06:14:50;;;;;;;5.97;1.45;;;;;;;;;;5041472;28;20045;-75
2024/02/27 06:17:22;;;;;;;2.05;1.70;;;;;;;;;;5040868;28;20534;-75
2024/02/27 06:19:59;;;;;;;4.03;1.80;;;;;;;;;;5042782;28;20041;-75
2024/02/27 06:22:31;;;;;;;3.17;1.70;;;;;;;;;;5042265;28;20436;-75
2024/02/27 06:25:03;;;;;;;2.05;1.20;;;;;;;;;;5041553;28;20053;-75
2024/02/27 06:27:33;;;;;;;4.15;1.65;;;;;;;;;;5041434;28;20052;-75
2024/02/27 06:30:04;;;;;;;2.20;1.60;;;;;;;;;;5045231;28;20048;-74
2024/02/27 06:32:35;;;;;;;2.35;1.60;;;;;;;;;;5045872;28;20053;-76
2024/02/27 06:35:05;;;;;;;3.33;1.65;;;;;;;;;;5045584;28;20048;-75
2024/02/27 06:37:38;;;;;;;4.15;1.60;;;;;;;;;;5045778;28;20542;-75
2024/02/27 06:40:09;;;;;;;5.63;1.38;;;;;;;;;;5044639;28;20427;-75
2024/02/27 06:42:41;;;;;;;1.95;1.45;;;;;;;;;;5045181;28;20040;-75
2024/02/27 06:45:15;;;;;;;2.45;1.52;;;;;;;;;;5046292;28;20049;-75
2024/02/27 06:47:46;;;;;;;2.42;1.35;;;;;;;;;;5045875;28;20048;-75
2024/02/27 06:50:17;;;;;;;1.65;1.25;;;;;;;;;;5045859;28;20045;-74
2024/02/27 06:52:47;;;;;;;1.77;1.17;;;;;;;;;;5045574;28;20056;-74
2024/02/27 06:55:18;;;;;;;1.90;1.30;;;;;;;;;;5045050;28;20049;-74
2024/02/27 06:57:49;;;;;;;1.40;1.13;;;;;;;;;;5045634;28;20053;-75
2024/02/27 07:00:20;;;;;;;1.30;1.00;;;;;;;;;;5044996;28;20056;-73
2024/02/27 07:02:50;;;;;;;1.08;0.88;;;;;;;;;;5045430;28;20044;-74
2024/02/27 07:05:21;;;;;;;2.65;0.88;;;;;;;;;;5045265;28;20483;-74
2024/02/27 07:08:04;;;;;;;1.80;0.90;;;;;;;;;;5044662;28;20510;-74
2024/02/27 07:10:35;;;;;;;4.57;0.93;;;;;;;;;;5045248;28;20068;-74
2024/02/27 07:13:06;;;;;;;5.10;1.10;;;;;;;;;;5043259;28;20057;-75
2024/02/27 07:15:37;;;;;;;5.05;0.77;;;;;;;;;;5044916;28;20396;-74
2024/02/27 07:18:08;;;;;;;0.75;0.75;;;;;;;;;;5044872;28;20060;-74
2024/02/27 07:20:39;;;;;;;1.10;0.85;;;;;;;;;;5044778;28;20455;-73
2024/02/27 07:23:09;;;;;;;3.00;0.90;;;;;;;;;;5045139;28;20412;-74
2024/02/27 07:25:42;;;;;;;3.22;0.90;;;;;;;;;;5045819;28;20056;-74
2024/02/27 07:28:13;;;;;;;2.30;0.88;;;;;;;;;;5044517;28;20487;-74
2024/02/27 07:30:54;;;;;;;3.72;0.93;;;;;;;;;;5045047;28;20055;-74
2024/02/27 07:33:25;;;;;;;5.90;1.45;;;;;;;;;;5044426;28;20127;-75
2024/02/27 07:35:56;;;;;;;6.22;1.33;;;;;;;;;;5044278;28;20049;-75
2024/02/27 07:38:26;;;;;;;4.00;1.20;;;;;;;;;;5042871;28;20060;-74
2024/02/27 07:40:57;;;;;;;2.88;1.33;;;;;;;;;;5044462;28;20049;-80
2024/02/27 07:43:27;;;;;;;2.85;0.93;;;;;;;;;;5044667;28;20495;-75
2024/02/27 07:45:58;;;;;;;3.75;1.20;;;;;;;;;;5042786;28;20049;-74
2024/02/27 07:48:30;;;;;;;4.47;1.13;;;;;;;;;;5044499;28;20053;-74
2024/02/27 07:51:00;;;;;;;4.25;1.08;;;;;;;;;;5043565;28;20500;-75
2024/02/27 07:53:30;;;;;;;6.38;1.10;;;;;;;;;;5044271;28;20064;-74
2024/02/27 07:56:00;;;;;;;6.45;1.10;;;;;;;;;;5043926;28;20053;-74
2024/02/27 07:58:31;;;;;;;3.78;1.02;;;;;;;;;;5043975;28;20724;-74
2024/02/27 08:01:02;;;;;;;4.03;1.05;;;;;;;;;;5044145;28;20522;-74
2024/02/27 08:03:33;;;;;;;7.30;1.10;;;;;;;;;;5044021;28;20049;-74
2024/02/27 08:06:06;;;;;;;3.90;1.05;;;;;;;;;;5042716;28;20060;-74
2024/02/27 08:08:38;;;;;;;4.97;1.00;;;;;;;;;;5044076;28;20093;-74
2024/02/27 08:11:11;;;;;;;3.25;1.13;;;;;;;;;;5044143;28;20426;-75
2024/02/27 08:13:41;;;;;;;0.80;0.73;;;;;;;;;;5043995;28;20053;-74
2024/02/27 08:16:11;;;;;;;1.33;1.05;;;;;;;;;;5044211;28;20120;-73
2024/02/27 08:18:41;;;;;;;2.58;0.82;;;;;;;;;;5042027;28;20061;-74
2024/02/27 08:21:12;;;;;;;2.55;0.95;;;;;;;;;;5043774;28;20061;-75
2024/02/27 08:23:43;;;;;;;0.93;0.80;;;;;;;;;;5043518;28;20048;-73
2024/02/27 08:26:14;;;;;;;3.85;0.90;;;;;;;;;;5043177;28;20060;-73
2024/02/27 08:28:44;;;;;;;1.90;0.93;;;;;;;;;;5043455;28;20041;-73
2024/02/27 08:31:15;;;;;;;3.05;1.20;;;;;;;;;;5044011;28;20500;-73
2024/02/27 08:33:46;;;;;;;1.63;0.82;;;;;;;;;;5043636;28;20519;-74
2024/02/27 08:36:17;;;;;;;0.77;0.77;;;;;;;;;;5041920;28;20561;-74
2024/02/27 08:38:47;;;;;;;5.97;0.98;;;;;;;;;;5042960;28;20060;-74
2024/02/27 08:41:21;;;;;;;2.38;1.00;;;;;;;;;;5043335;28;20044;-74
2024/02/27 08:43:52;;;;;;;4.25;0.90;;;;;;;;;;5043475;28;20049;-74
2024/02/27 08:46:23;;;;;;;0.98;0.80;;;;;;;;;;5043607;28;20053;-74
2024/02/27 08:48:53;;;;;;;6.75;0.93;;;;;;;;;;5043248;28;20056;-74
2024/02/27 08:51:24;;;;;;;0.95;0.73;;;;;;;;;;5042555;28;20052;-73
2024/02/27 08:53:54;;;;;;;7.70;0.75;;;;;;;;;;5043172;28;20041;-75
2024/02/27 08:56:24;;;;;;;2.40;0.80;;;;;;;;;;5044059;28;20048;-74
2024/02/27 08:58:56;;;;;;;2.33;0.90;;;;;;;;;;5042979;28;20404;-74
2024/02/27 09:01:26;;;;;;;2.60;0.60;;;;;;;;;;5042965;28;20041;-75
2024/02/27 09:03:57;;;;;;;2.65;0.80;;;;;;;;;;5042769;28;20041;-82
2024/02/27 09:06:28;;;;;;;5.28;0.85;;;;;;;;;;5042912;28;20049;-73
2024/02/27 09:08:59;;;;;;;3.58;0.80;;;;;;;;;;5042727;28;20045;-74
2024/02/27 09:11:29;;;;;;;5.15;0.85;;;;;;;;;;5043330;28;20052;-73
2024/02/27 09:14:01;;;;;;;1.00;1.00;;;;;;;;;;5043001;28;20492;-73
2024/02/27 09:16:31;;;;;;;2.50;0.88;;;;;;;;;;5042232;28;20044;-74
2024/02/27 09:19:01;;;;;;;6.65;0.90;;;;;;;;;;5042468;28;20057;-74
2024/02/27 09:21:31;;;;;;;7.75;1.13;;;;;;;;;;5042639;28;20053;-74
2024/02/27 09:24:02;;;;;;;4.47;1.10;;;;;;;;;;5042206;28;20072;-74
2024/02/27 09:26:33;;;;;;;1.33;1.00;;;;;;;;;;5042492;28;20070;-75
2024/02/27 09:29:04;;;;;;;5.00;1.40;;;;;;;;;;5042523;28;20048;-78
2024/02/27 09:31:34;;;;;;;2.13;1.13;;;;;;;;;;5042682;28;20036;-73
2024/02/27 09:34:08;;;;;;;4.95;1.50;;;;;;;;;;5042696;28;20049;-74
2024/02/27 09:36:39;;;;;;;3.40;1.10;;;;;;;;;;5041760;28;20404;-75
2024/02/27 09:39:09;;;;;;;1.88;1.33;;;;;;;;;;5042868;28;20064;-74
2024/02/27 09:41:45;;;;;;;1.80;1.20;;;;;;;;;;5042473;28;20048;-72
2024/02/27 09:44:17;;;;;;;6.90;1.08;;;;;;;;;;5042104;28;20053;-72
2024/02/27 09:46:50;;;;;;;3.13;1.02;;;;;;;;;;5041771;28;20048;-75
2024/02/27 09:49:22;;;;;;;1.88;0.80;;;;;;;;;;5040628;28;20120;-73
2024/02/27 09:52:14;;;;;;;1.95;0.70;;;;;;;;;;5042366;28;20531;-72
2024/02/27 09:54:46;;;;;;;0.90;0.80;;;;;;;;;;5042262;28;20041;-74
2024/02/27 09:57:17;;;;;;;5.50;1.02;;;;;;;;;;5042556;28;20443;-75
2024/02/27 09:59:48;;;;;;;6.53;1.10;;;;;;;;;;5040657;28;20067;-80
2024/02/27 10:02:18;;;;;;;2.30;0.90;;;;;;;;;;5042422;28;20045;-72
2024/02/27 10:04:51;;;;;;;7.22;0.98;;;;;;;;;;5044787;28;20484;-75
2024/02/27 10:07:23;;;;;;;3.63;0.77;;;;;;;;;;5046755;28;20808;-73
2024/02/27 10:09:54;;;;;;;0.95;0.77;;;;;;;;;;5045925;28;20532;-74
2024/02/27 10:12:25;;;;;;;3.25;0.75;;;;;;;;;;5046443;28;20389;-74
2024/02/27 10:14:56;;;;;;;1.90;0.85;;;;;;;;;;5045718;28;20111;-73
2024/02/27 10:17:28;;;;;;;7.10;1.30;;;;;;;;;;5045574;28;20060;-73
2024/02/27 10:20:02;;;;;;;1.17;0.90;;;;;;;;;;5045831;28;20041;-74
2024/02/27 10:22:33;;;;;;;1.10;1.00;;;;;;;;;;5046048;28;20056;-74
2024/02/27 10:25:14;;;;;;;2.25;1.10;;;;;;;;;;5046139;28;20064;-74
2024/02/27 10:27:45;;;;;;;1.70;0.82;;;;;;;;;;5045610;28;20045;-73
2024/02/27 10:30:17;;;;;;;2.83;1.00;;;;;;;;;;5046294;28;20041;-73
2024/02/27 10:32:50;;;;;;;1.10;1.00;;;;;;;;;;5045534;28;20049;-73
2024/02/27 10:35:22;;;;;;;1.52;0.63;;;;;;;;;;5045848;28;20041;-73
2024/02/27 10:37:53;;;;;;;1.65;0.88;;;;;;;;;;5045403;28;20053;-73
2024/02/27 10:40:23;;;;;;;4.20;0.63;;;;;;;;;;5045307;28;20396;-73
2024/02/27 10:42:53;;;;;;;2.78;1.45;;;;;;;;;;5045313;28;20527;-73
2024/02/27 10:45:25;;;;;;;20.35;2.67;;;;;;;;;;5045731;28;20525;-73
2024/02/27 10:48:00;;;;;;;11.23;2.72;;;;;;;;;;5044162;28;20080;-73
2024/02/27 10:50:30;;;;;;;;;;;;;;;;;;5044231;28;20060;-73
2024/02/27 10:53:05;;;;;;;7.43;2.08;;;;;;;;;;5045355;28;19925;-73
2024/02/27 10:55:37;;;;;;;7.25;1.88;;;;;;;;;;5046128;28;20049;-73
2024/02/27 10:58:12;;;;;;;6.57;2.05;;;;;;;;;;5045195;28;20052;-74
2024/02/27 11:00:42;;;;;;;3.83;1.63;;;;;;;;;;5045113;28;20064;-74
2024/02/27 11:03:17;;;;;;;2.97;1.40;;;;;;;;;;5045901;28;20060;-74
2024/02/27 11:05:55;;;;;;;5.07;1.40;;;;;;;;;;5043161;28;20053;-74
2024/02/27 11:08:27;;;;;;;4.35;1.50;;;;;;;;;;5045318;28;20443;-74
2024/02/27 11:10:57;;;;;;;3.47;1.48;;;;;;;;;;5045344;28;20044;-74
2024/02/27 11:13:28;;;;;;;3.58;1.42;;;;;;;;;;5045630;28;20563;-73
2024/02/27 11:16:01;;;;;;;5.00;1.92;;;;;;;;;;5044449;28;20550;-74
2024/02/27 11:18:36;;;;;;;4.00;1.40;;;;;;;;;;5044441;28;20056;-74
2024/02/27 11:21:07;;;;;;;;;;;;;;;;;;5045067;28;20044;-81
2024/02/27 11:23:37;;;;;;;2.92;1.70;;;;;;;;;;5044598;28;19929;-74
2024/02/27 11:26:08;;;;;;;3.95;1.50;;;;;;;;;;5044674;28;20048;-73
2024/02/27 11:28:40;;;;;;;4.97;1.92;;;;;;;;;;5044561;28;20605;-74
2024/02/27 11:31:11;;;;;;;2.65;1.58;;;;;;;;;;5045077;28;20056;-79
2024/02/27 11:33:51;;;;;;;3.10;1.45;;;;;;;;;;5043408;28;20424;-75
2024/02/27 11:36:24;;;;;;;2.47;1.50;;;;;;;;;;5043427;28;20049;-75
2024/02/27 11:38:55;;;;;;;6.25;1.90;;;;;;;;;;5044072;28;20511;-74
2024/02/27 11:41:27;;;;;;;2.53;1.98;;;;;;;;;;5044080;28;20522;-75
2024/02/27 11:43:58;;;;;;;8.18;2.25;;;;;;;;;;5042946;28;20048;-75
2024/02/27 11:46:34;;;;;;;1.90;1.60;;;;;;;;;;5043906;28;20049;-76
2024/02/27 11:49:05;;;;;;;3.03;1.52;;;;;;;;;;5044406;28;20052;-74
2024/02/27 11:51:37;;;;;;;2.60;1.80;;;;;;;;;;5043730;28;20049;-73
2024/02/27 11:54:08;;;;;;;3.95;1.92;;;;;;;;;;5044534;28;20765;-73
2024/02/27 11:56:42;;;;;;;3.33;1.65;;;;;;;;;;5044011;28;20041;-75
2024/02/27 11:59:18;;;;;;;3.80;1.73;;;;;;;;;;5044336;28;20048;-74
2024/02/27 12:02:03;;;;;;;2.33;1.73;;;;;;;;;;5043968;28;20060;-75
2024/02/27 12:04:34;;;;;;;2.05;1.40;;;;;;;;;;5045034;28;20127;-75
2024/02/27 12:07:05;;;;;;;2.25;1.75;;;;;;;;;;5044432;28;20057;-76
2024/02/27 12:09:38;;;;;;;6.38;1.45;;;;;;;;;;5042884;28;20064;-75
2024/02/27 12:12:09;;;;;;;4.00;1.55;;;;;;;;;;5044644;28;20037;-76
2024/02/27 12:14:40;;;;;;;2.45;1.67;;;;;;;;;;5043850;28;20504;-74
2024/02/27 12:17:10;;;;;;;2.15;1.95;;;;;;;;;;5043919;28;20049;-76
2024/02/27 12:19:40;;;;;;;4.03;2.25;;;;;;;;;;5044140;28;20052;-75
2024/02/27 12:22:13;;;;;;;4.35;2.58;;;;;;;;;;5043167;28;21139;-75
2024/02/27 12:24:46;;;;;;;5.55;2.83;;;;;;;;;;5043782;28;20592;-76
2024/02/27 12:27:16;;;;;;;2.28;1.70;;;;;;;;;;5042326;28;20048;-81
2024/02/27 12:29:46;;;;;;;2.92;2.00;;;;;;;;;;5043595;28;20060;-76
2024/02/27 12:32:17;;;;;;;3.67;1.50;;;;;;;;;;5043639;28;20384;-76
2024/02/27 12:34:49;;;;;;;3.15;1.60;;;;;;;;;;5043573;28;20055;-73
2024/02/27 12:37:21;;;;;;;1.92;1.55;;;;;;;;;;5042357;28;20041;-73
2024/02/27 12:39:51;;;;;;;2.15;1.63;;;;;;;;;;5043695;28;20044;-72
2024/02/27 12:42:21;;;;;;;6.38;1.70;;;;;;;;;;5042976;28;20526;-76
2024/02/27 12:44:54;;;;;;;2.38;1.60;;;;;;;;;;5043535;28;20053;-78
2024/02/27 12:47:25;;;;;;;2.28;1.60;;;;;;;;;;5043458;28;20041;-76
2024/02/27 12:49:55;;;;;;;4.68;1.60;;;;;;;;;;5042823;28;20060;-73
2024/02/27 12:52:25;;;;;;;5.07;1.45;;;;;;;;;;5042871;28;20045;-75
2024/02/27 12:54:56;;;;;;;2.65;1.30;;;;;;;;;;5042262;28;20064;-73
2024/02/27 12:57:27;;;;;;;3.03;1.40;;;;;;;;;;5042844;28;20049;-74
2024/02/27 12:59:58;;;;;;;3.72;1.70;;;;;;;;;;5042777;28;20510;-79
2024/02/27 13:02:28;;;;;;;6.22;1.48;;;;;;;;;;5042364;28;20045;-80
2024/02/27 13:04:58;;;;;;;6.03;1.30;;;;;;;;;;5042469;28;20048;-77
2024/02/27 13:07:29;;;;;;;4.20;1.42;;;;;;;;;;5042543;28;20530;-74
2024/02/27 13:09:59;;;;;;;4.15;1.30;;;;;;;;;;5042482;28;20064;-75
2024/02/27 13:12:30;;;;;;;8.10;1.85;;;;;;;;;;5042840;28;20040;-73
2024/02/27 13:15:06;;;;;;;4.85;1.50;;;;;;;;;;5042858;28;20526;-74
2024/02/27 13:17:36;;;;;;;5.38;2.28;;;;;;;;;;5042909;28;20783;-81
2024/02/27 13:20:08;;;;;;;4.85;1.58;;;;;;;;;;5042243;28;20048;-76
2024/02/27 13:22:38;;;;;;;3.63;1.20;;;;;;;;;;5043300;28;20065;-77
2024/02/27 13:25:08;;;;;;;2.80;1.23;;;;;;;;;;5043332;28;20052;-73
2024/02/27 13:27:39;;;;;;;1.60;1.27;;;;;;;;;;5042563;28;20510;-76
2024/02/27 13:30:11;;;;;;;1.98;1.20;;;;;;;;;;5042993;28;20704;-75
2024/02/27 13:32:45;;;;;;;;;;;;;;;;;;5043107;28;20045;-74
2024/02/27 13:35:15;;;;;;;2.33;1.00;;;;;;;;;;5042382;28;19967;-77
2024/02/27 13:37:46;;;;;;;1.85;1.00;;;;;;;;;;5042248;28;20064;-77
2024/02/27 13:40:18;;;;;;;3.78;2.45;;;;;;;;;;5042261;28;20045;-84
2024/02/27 13:42:50;;;;;;;4.35;1.35;;;;;;;;;;5042682;28;20080;-75
2024/02/27 13:45:21;;;;;;;1.80;1.00;;;;;;;;;;5042703;28;20392;-79
2024/02/27 13:47:51;;;;;;;1.00;0.77;;;;;;;;;;5041905;28;20389;-76
2024/02/27 13:50:22;;;;;;;2.38;1.02;;;;;;;;;;5042147;28;20056;-74
2024/02/27 13:52:53;;;;;;;3.65;0.98;;;;;;;;;;5042829;28;20044;-74
2024/02/27 13:55:24;;;;;;;1.20;1.00;;;;;;;;;;5042248;28;20040;-86
2024/02/27 13:57:54;;;;;;;1.80;1.00;;;;;;;;;;5042040;28;20044;-76
2024/02/27 14:00:25;;;;;;;2.67;1.00;;;;;;;;;;5042200;28;20045;-75
2024/02/27 14:02:56;;;;;;;1.30;1.20;;;;;;;;;;5041677;28;20419;-73
2024/02/27 14:05:27;;;;;;;2.30;0.90;;;;;;;;;;5042436;28;20045;-75
2024/02/27 14:07:57;;;;;;;4.43;0.90;;;;;;;;;;5042551;28;20060;-77
2024/02/27 14:10:28;;;;;;;1.67;0.90;;;;;;;;;;5042527;28;20052;-75
2024/02/27 14:13:02;;;;;;;5.95;1.17;;;;;;;;;;5042495;28;20045;-78
2024/02/27 14:15:33;;;;;;;5.07;0.95;;;;;;;;;;5042751;28;20943;-77
2024/02/27 14:18:05;;;;;;;1.23;1.00;;;;;;;;;;5042378;28;20048;-77
2024/02/27 14:20:36;;;;;;;2.15;1.30;;;;;;;;;;5041810;28;20036;-78
2024/02/27 14:23:06;;;;;;;1.15;1.00;;;;;;;;;;5041518;28;20059;-74
2024/02/27 14:25:38;;;;;;;3.05;1.15;;;;;;;;;;5041988;28;20053;-73
2024/02/27 14:28:08;;;;;;;2.20;0.90;;;;;;;;;;5041673;28;20500;-76
2024/02/27 14:30:38;;;;;;;5.30;0.90;;;;;;;;;;5041606;28;20055;-75
2024/02/27 14:33:09;;;;;;;3.70;1.05;;;;;;;;;;5041513;28;20388;-75
2024/02/27 14:35:39;;;;;;;3.08;1.20;;;;;;;;;;5041620;28;20530;-75
2024/02/27 14:38:10;;;;;;;4.38;1.35;;;;;;;;;;5041715;28;20048;-75
2024/02/27 14:40:40;;;;;;;3.85;1.05;;;;;;;;;;5041858;28;20045;-74
2024/02/27 14:43:10;;;;;;;2.42;0.95;;;;;;;;;;5041703;28;20056;-77
2024/02/27 14:45:41;;;;;;;3.88;1.55;;;;;;;;;;5042100;28;20679;-74
2024/02/27 14:48:13;;;;;;;3.40;1.05;;;;;;;;;;5024901;28;20059;-75
2024/02/27 14:50:44;;;;;;;3.40;0.98;;;;;;;;;;5044079;28;20045;-75
2024/02/27 14:53:15;;;;;;;4.15;0.90;;;;;;;;;;5046197;28;20496;-74
2024/02/27 14:55:45;;;;;;;1.33;0.98;;;;;;;;;;5045653;28;20056;-74
2024/02/27 14:58:18;;;;;;;2.50;1.15;;;;;;;;;;5045382;28;20045;-75
2024/02/27 15:00:54;;;;;;;1.42;1.00;;;;;;;;;;5044440;28;20049;-78
2024/02/27 15:03:25;;;;;;;2.13;1.05;;;;;;;;;;5045352;28;20060;-76
2024/02/27 15:05:56;;;;;;;1.42;0.80;;;;;;;;;;5044950;28;20040;-75
2024/02/27 15:08:34;;;;;;;1.40;0.80;;;;;;;;;;5045529;28;20049;-82